createdAt,value
2023-05-04T00:01:41.226Z,60.41
2023-05-04T00:03:43.873Z,60.21
2023-05-04T00:05:46.576Z,60.38
2023-05-04T00:07:49.131Z,60.58
2023-05-04T00:09:53.081Z,60.44
2023-05-04T00:11:55.621Z,60.09
2023-05-04T00:13:58.154Z,60.23
2023-05-04T00:16:00.774Z,60.37
2023-05-04T00:18:03.415Z,59.51
2023-05-04T00:20:07.428Z,59.66
2023-05-04T00:22:10.059Z,59.87
2023-05-04T00:24:12.629Z,60.39
2023-05-04T00:26:16.621Z,60.67
2023-05-04T00:28:19.222Z,60.64
2023-05-04T00:30:21.765Z,61.02
2023-05-04T00:32:24.422Z,60.77
2023-05-04T00:34:27.043Z,60.98
2023-05-04T00:36:29.608Z,60.18
2023-05-04T00:38:31.238Z,60.22
2023-05-04T00:40:35.128Z,60.45
2023-05-04T00:42:39.017Z,60.64
2023-05-04T00:44:42.294Z,60.98
2023-05-04T00:46:45.143Z,60.89
2023-05-04T00:48:50.105Z,60.87
2023-05-04T00:50:52.670Z,61.02
2023-05-04T00:52:57.256Z,60.87
2023-05-04T00:55:01.912Z,60.67
2023-05-04T00:57:04.546Z,60.55
2023-05-04T00:59:08.485Z,61.03
2023-05-04T01:01:11.537Z,61.00
2023-05-04T01:03:14.425Z,61.40
2023-05-04T01:05:17.290Z,61.23
2023-05-04T01:07:26.845Z,60.65
2023-05-04T01:09:36.988Z,60.63
2023-05-04T01:11:45.127Z,61.02
2023-05-04T01:13:48.184Z,61.30
2023-05-04T01:15:52.720Z,60.98
2023-05-04T01:17:55.362Z,60.99
2023-05-04T01:19:58.022Z,61.16
2023-05-04T01:22:01.947Z,60.94
2023-05-04T01:24:04.836Z,61.12
2023-05-04T01:26:15.260Z,61.17
2023-05-04T01:28:20.429Z,61.12
2023-05-04T01:30:27.055Z,61.08
2023-05-04T01:32:31.446Z,60.82
2023-05-04T01:34:34.942Z,60.66
2023-05-04T01:36:37.970Z,60.83
2023-05-04T01:38:43.146Z,61.17
2023-05-04T01:40:45.739Z,61.15
2023-05-04T01:42:48.377Z,61.21
2023-05-04T01:44:51.661Z,60.84
2023-05-04T01:46:54.324Z,60.88
2023-05-04T01:48:57.004Z,61.10
2023-05-04T01:50:59.577Z,61.06
2023-05-04T01:53:02.163Z,61.21
2023-05-04T01:55:07.213Z,61.43
2023-05-04T01:57:10.011Z,61.43
2023-05-04T01:59:12.602Z,61.22
2023-05-04T02:01:15.209Z,61.21
2023-05-04T02:03:17.893Z,61.16
2023-05-04T02:05:20.498Z,61.21
2023-05-04T02:07:23.114Z,61.12
2023-05-04T02:09:26.165Z,61.26
2023-05-04T02:11:30.125Z,61.28
2023-05-04T02:13:32.697Z,61.35
2023-05-04T02:15:35.273Z,61.06
2023-05-04T02:17:37.875Z,61.46
2023-05-04T02:19:40.471Z,61.57
2023-05-04T02:21:43.073Z,62.10
2023-05-04T02:23:45.698Z,61.23
2023-05-04T02:25:48.276Z,61.70
2023-05-04T02:27:52.312Z,62.07
2023-05-04T02:29:55.005Z,62.17
2023-05-04T02:31:57.608Z,62.08
2023-05-04T02:34:04.817Z,61.68
2023-05-04T02:36:07.765Z,61.89
2023-05-04T02:38:10.435Z,62.15
2023-05-04T02:40:14.253Z,62.16
2023-05-04T02:42:17.953Z,62.05
2023-05-04T02:44:21.895Z,62.45
2023-05-04T02:46:26.696Z,62.22
2023-05-04T02:48:29.375Z,61.93
2023-05-04T02:50:31.976Z,62.25
2023-05-04T02:52:34.531Z,61.96
2023-05-04T02:54:38.481Z,62.47
2023-05-04T02:56:41.040Z,62.53
2023-05-04T02:58:43.611Z,62.52
2023-05-04T03:00:47.640Z,62.38
2023-05-04T03:02:50.365Z,62.16
2023-05-04T03:04:53.029Z,62.64
2023-05-04T03:06:55.582Z,62.47
2023-05-04T03:08:58.168Z,62.50
2023-05-04T03:11:00.736Z,62.70
2023-05-04T03:13:06.188Z,62.63
2023-05-04T03:15:09.839Z,62.95
2023-05-04T03:17:13.718Z,63.06
2023-05-04T03:19:18.879Z,62.64
2023-05-04T03:21:21.473Z,63.05
2023-05-04T03:23:24.081Z,62.31
2023-05-04T03:25:26.960Z,62.70
2023-05-04T03:27:29.535Z,62.60
2023-05-04T03:29:32.103Z,62.59
2023-05-04T03:31:34.790Z,62.68
2023-05-04T03:33:38.727Z,62.79
2023-05-04T03:35:41.614Z,62.83
2023-05-04T03:37:44.151Z,62.55
2023-05-04T03:39:46.734Z,62.76
2023-05-04T03:41:49.511Z,62.71
2023-05-04T03:43:52.063Z,62.91
2023-05-04T03:45:54.674Z,63.06
2023-05-04T03:47:57.406Z,62.66
2023-05-04T03:50:01.417Z,62.85
2023-05-04T03:52:04.008Z,62.93
2023-05-04T03:54:07.275Z,62.16
2023-05-04T03:56:09.961Z,62.20
2023-05-04T03:58:12.538Z,61.71
2023-05-04T04:00:16.341Z,61.93
2023-05-04T04:02:19.020Z,62.24
2023-05-04T04:04:21.705Z,62.36
2023-05-04T04:06:25.657Z,62.75
2023-05-04T04:08:28.289Z,62.39
2023-05-04T04:10:31.939Z,62.55
2023-05-04T04:12:34.596Z,62.80
2023-05-04T04:14:37.182Z,63.39
2023-05-04T04:16:41.722Z,63.28
2023-05-04T04:18:44.333Z,63.74
2023-05-04T04:20:47.209Z,63.44
2023-05-04T04:22:51.153Z,63.30
2023-05-04T04:24:53.728Z,62.99
2023-05-04T04:26:56.320Z,63.36
2023-05-04T04:28:58.915Z,63.64
2023-05-04T04:31:01.936Z,63.84
2023-05-04T04:33:04.961Z,63.74
2023-05-04T04:35:08.557Z,63.34
2023-05-04T04:37:12.057Z,63.54
2023-05-04T04:39:17.049Z,63.52
2023-05-04T04:41:19.779Z,63.43
2023-05-04T04:43:22.340Z,63.20
2023-05-04T04:45:24.999Z,63.31
2023-05-04T04:47:27.842Z,63.70
2023-05-04T04:49:32.518Z,63.15
2023-05-04T04:51:35.087Z,63.34
2023-05-04T04:53:37.653Z,64.11
2023-05-04T04:55:42.618Z,64.52
2023-05-04T04:57:45.170Z,64.27
2023-05-04T04:59:47.721Z,64.74
2023-05-04T05:01:50.300Z,64.33
2023-05-04T05:03:52.873Z,64.78
2023-05-04T05:05:55.725Z,64.47
2023-05-04T05:07:58.287Z,64.85
2023-05-04T05:10:00.890Z,64.90
2023-05-04T05:12:05.392Z,65.13
2023-05-04T05:14:07.940Z,65.28
2023-05-04T05:16:10.596Z,65.47
2023-05-04T05:18:13.666Z,65.57
2023-05-04T05:20:16.242Z,65.83
2023-05-04T05:22:18.784Z,66.11
2023-05-04T05:24:21.362Z,66.23
2023-05-04T05:26:24.794Z,66.62
2023-05-04T05:28:29.862Z,66.23
2023-05-04T05:30:32.648Z,66.39
2023-05-04T05:32:35.281Z,66.67
2023-05-04T05:34:38.942Z,66.72
2023-05-04T05:36:41.569Z,67.21
2023-05-04T05:38:44.110Z,67.22
2023-05-04T05:40:46.931Z,66.85
2023-05-04T05:42:49.511Z,67.00
2023-05-04T05:44:53.427Z,66.84
2023-05-04T05:46:56.735Z,67.11
2023-05-04T05:48:59.306Z,66.74
2023-05-04T05:51:01.904Z,66.98
2023-05-04T05:53:04.566Z,66.76
2023-05-04T05:55:07.537Z,66.75
2023-05-04T05:57:10.100Z,66.82
2023-05-04T05:59:12.673Z,66.80
2023-05-04T06:01:16.572Z,66.76
2023-05-04T06:03:19.316Z,66.99
2023-05-04T06:05:21.986Z,66.73
2023-05-04T06:07:24.600Z,66.50
2023-05-04T06:09:27.153Z,66.41
2023-05-04T06:11:29.780Z,66.23
2023-05-04T06:13:32.325Z,66.22
2023-05-04T06:15:36.588Z,66.39
2023-05-04T06:17:40.573Z,66.33
2023-05-04T06:19:43.129Z,66.20
2023-05-04T06:21:45.703Z,66.45
2023-05-04T06:23:48.257Z,66.14
2023-05-04T06:25:50.821Z,66.47
2023-05-04T06:27:53.398Z,65.56
2023-05-04T06:29:55.986Z,65.91
2023-05-04T06:31:58.970Z,66.00
2023-05-04T06:34:02.954Z,66.38
2023-05-04T06:36:06.384Z,66.44
2023-05-04T06:38:08.960Z,65.97
2023-05-04T06:40:12.428Z,66.17
2023-05-04T06:42:15.370Z,66.19
2023-05-04T06:44:18.588Z,65.89
2023-05-04T06:46:21.397Z,65.92
2023-05-04T06:48:24.086Z,65.81
2023-05-04T06:50:28.222Z,65.83
2023-05-04T06:52:30.784Z,66.02
2023-05-04T06:54:33.350Z,65.98
2023-05-04T06:56:36.006Z,65.81
2023-05-04T06:58:38.605Z,65.80
2023-05-04T07:00:42.464Z,65.73
2023-05-04T07:02:46.966Z,65.85
2023-05-04T07:04:53.551Z,65.73
2023-05-04T07:06:57.464Z,65.55
2023-05-04T07:09:00.064Z,65.84
2023-05-04T07:11:02.672Z,65.88
2023-05-04T07:13:05.893Z,65.84
2023-05-04T07:15:09.871Z,66.06
2023-05-04T07:17:14.069Z,65.89
2023-05-04T07:19:17.000Z,65.68
2023-05-04T07:21:27.422Z,65.90
2023-05-04T07:23:32.902Z,65.88
2023-05-04T07:25:35.656Z,66.06
2023-05-04T07:27:38.231Z,66.00
2023-05-04T07:29:41.651Z,66.01
2023-05-04T07:31:44.256Z,65.98
2023-05-04T07:33:46.798Z,65.96
2023-05-04T07:35:49.354Z,65.80
2023-05-04T07:37:51.959Z,65.65
2023-05-04T07:39:55.905Z,65.81
2023-05-04T07:41:58.482Z,65.95
2023-05-04T07:44:01.080Z,65.82
2023-05-04T07:46:04.060Z,65.86
2023-05-04T07:48:06.971Z,66.01
2023-05-04T07:50:10.130Z,65.95
2023-05-04T07:52:12.758Z,65.75
2023-05-04T07:54:16.199Z,65.99
2023-05-04T07:56:20.234Z,65.96
2023-05-04T07:58:22.795Z,66.20
2023-05-04T08:00:25.482Z,66.06
2023-05-04T08:02:28.127Z,66.16
2023-05-04T08:04:30.848Z,66.04
2023-05-04T08:06:35.357Z,65.42
2023-05-04T08:08:37.924Z,65.40
2023-05-04T08:10:40.837Z,65.58
2023-05-04T08:12:44.994Z,65.47
2023-05-04T08:14:48.068Z,65.24
2023-05-04T08:16:50.637Z,65.15
2023-05-04T08:18:56.153Z,65.24
2023-05-04T08:20:58.749Z,65.50
2023-05-04T08:23:02.640Z,65.67
2023-05-04T08:25:06.032Z,65.73
2023-05-04T08:27:09.921Z,65.47
2023-05-04T08:29:14.149Z,65.31
2023-05-04T08:31:18.392Z,65.67
2023-05-04T08:33:20.983Z,65.61
2023-05-04T08:35:25.876Z,65.41
2023-05-04T08:37:28.426Z,64.98
2023-05-04T08:39:31.253Z,65.18
2023-05-04T08:41:34.451Z,65.29
2023-05-04T08:43:37.107Z,65.32
2023-05-04T08:45:41.664Z,65.21
2023-05-04T08:47:45.068Z,64.63
2023-05-04T08:49:47.728Z,64.50
2023-05-04T08:51:51.230Z,64.51
2023-05-04T08:53:55.648Z,64.76
2023-05-04T08:56:04.052Z,64.93
2023-05-04T08:58:11.002Z,65.33
2023-05-04T09:00:17.584Z,65.35
2023-05-04T09:02:23.095Z,65.10
2023-05-04T09:04:29.240Z,64.42
2023-05-04T09:06:35.166Z,63.31
2023-05-04T09:08:37.818Z,62.20
2023-05-04T09:10:43.340Z,62.32
2023-05-04T09:12:46.515Z,62.81
2023-05-04T09:14:49.206Z,63.10
2023-05-04T09:16:51.952Z,59.02
2023-05-04T09:18:55.958Z,52.83
2023-05-04T09:20:58.516Z,50.60
2023-05-04T09:23:03.176Z,51.16
2023-05-04T09:25:08.281Z,50.97
2023-05-04T09:27:11.617Z,51.11
2023-05-04T09:29:15.188Z,47.75
2023-05-04T09:31:17.832Z,48.01
2023-05-04T09:33:27.228Z,48.17
2023-05-04T09:35:33.756Z,46.69
2023-05-04T09:37:44.958Z,47.53
2023-05-04T09:39:55.159Z,47.59
2023-05-04T09:41:57.916Z,47.54
2023-05-04T09:44:00.469Z,47.15
2023-05-04T09:46:03.187Z,46.17
2023-05-04T09:48:16.216Z,45.89
2023-05-04T09:50:22.162Z,47.06
2023-05-04T09:52:30.856Z,45.19
2023-05-04T09:54:36.094Z,44.18
2023-05-04T09:56:42.846Z,44.96
2023-05-04T09:58:47.174Z,45.01
2023-05-04T10:00:50.159Z,46.38
2023-05-04T10:02:53.458Z,46.19
2023-05-04T10:04:58.978Z,44.87
2023-05-04T10:07:04.355Z,44.98
2023-05-04T10:09:08.994Z,42.59
2023-05-04T10:11:14.989Z,42.02
2023-05-04T10:13:18.078Z,40.43
2023-05-04T10:15:22.759Z,41.35
2023-05-04T10:17:36.061Z,42.96
2023-05-04T10:19:55.544Z,43.81
2023-05-04T10:22:13.619Z,42.00
2023-05-04T10:24:29.226Z,42.05
2023-05-04T10:26:55.178Z,41.61
2023-05-04T10:29:12.822Z,42.13
2023-05-04T10:31:15.809Z,42.58
2023-05-04T10:33:18.578Z,43.49
2023-05-04T10:35:21.784Z,42.75
2023-05-04T10:37:24.432Z,42.30
2023-05-04T10:39:31.173Z,42.92
2023-05-04T10:41:33.713Z,43.22
2023-05-04T10:43:36.300Z,42.09
2023-05-04T10:45:39.818Z,43.39
2023-05-04T10:47:43.022Z,41.30
2023-05-04T10:49:45.620Z,41.99
2023-05-04T10:51:49.632Z,42.28
2023-05-04T10:53:53.138Z,42.28
2023-05-04T10:55:57.018Z,41.24
2023-05-04T10:57:59.603Z,42.02
2023-05-04T11:00:02.275Z,42.56
2023-05-04T11:02:06.646Z,41.75
2023-05-04T11:04:19.941Z,42.51
2023-05-04T11:06:24.565Z,42.44
2023-05-04T11:08:28.137Z,43.27
2023-05-04T11:10:31.031Z,42.19
2023-05-04T11:12:36.873Z,41.48
2023-05-04T11:14:43.152Z,41.90
2023-05-04T11:16:46.534Z,41.65
2023-05-04T11:18:50.648Z,41.87
2023-05-04T11:20:53.253Z,40.01
2023-05-04T11:22:55.943Z,40.18
2023-05-04T11:24:58.560Z,40.56
2023-05-04T11:27:01.209Z,41.17
2023-05-04T11:29:14.550Z,41.62
2023-05-04T11:31:18.457Z,42.37
2023-05-04T11:33:21.024Z,42.01
2023-05-04T11:35:25.862Z,41.51
2023-05-04T11:37:29.823Z,41.69
2023-05-04T11:39:33.433Z,42.86
2023-05-04T11:41:36.458Z,42.97
2023-05-04T11:43:40.687Z,41.99
2023-05-04T11:45:47.150Z,42.16
2023-05-04T11:47:51.187Z,40.37
2023-05-04T11:49:53.880Z,40.66
2023-05-04T11:52:06.983Z,39.83
2023-05-04T11:54:20.623Z,38.66
2023-05-04T11:56:23.345Z,37.10
2023-05-04T11:58:26.805Z,37.55
2023-05-04T12:00:37.371Z,39.58
2023-05-04T12:02:41.644Z,39.38
2023-05-04T12:04:44.421Z,40.78
2023-05-04T12:06:47.037Z,38.15
2023-05-04T12:08:49.646Z,38.31
2023-05-04T12:10:52.217Z,38.30
2023-05-04T12:12:54.842Z,39.10
2023-05-04T12:14:57.649Z,39.75
2023-05-04T12:17:02.887Z,39.44
2023-05-04T12:19:08.204Z,36.71
2023-05-04T12:21:12.028Z,36.88
2023-05-04T12:23:14.590Z,36.70
2023-05-04T12:25:19.424Z,37.67
2023-05-04T12:27:22.082Z,37.76
2023-05-04T12:29:24.637Z,37.69
2023-05-04T12:31:28.530Z,36.35
2023-05-04T12:33:31.775Z,38.53
2023-05-04T12:35:35.668Z,39.98
2023-05-04T12:37:38.875Z,39.67
2023-05-04T12:39:41.937Z,39.87
2023-05-04T12:41:44.486Z,39.79
2023-05-04T12:43:47.032Z,40.56
2023-05-04T12:45:49.739Z,38.58
2023-05-04T12:47:52.406Z,39.04
2023-05-04T12:49:55.872Z,39.06
2023-05-04T12:51:59.842Z,39.20
2023-05-04T12:54:02.378Z,38.96
2023-05-04T12:56:05.263Z,37.95
2023-05-04T12:58:08.895Z,38.72
2023-05-04T13:00:12.864Z,39.74
2023-05-04T13:02:15.609Z,38.94
2023-05-04T13:04:18.380Z,39.57
2023-05-04T13:06:20.960Z,38.73
2023-05-04T13:08:24.938Z,38.70
2023-05-04T13:10:27.990Z,35.95
2023-05-04T13:12:30.598Z,34.94
2023-05-04T13:14:39.552Z,35.94
2023-05-04T13:16:42.654Z,34.28
2023-05-04T13:18:45.270Z,33.89
2023-05-04T13:20:47.848Z,35.50
2023-05-04T13:22:50.699Z,34.15
2023-05-04T13:24:54.708Z,32.40
2023-05-04T13:26:58.196Z,32.59
2023-05-04T13:29:03.323Z,33.69
2023-05-04T13:31:06.364Z,32.78
2023-05-04T13:33:20.861Z,32.89
2023-05-04T13:35:30.439Z,32.59
2023-05-04T13:37:33.889Z,32.80
2023-05-04T13:39:41.908Z,32.51
2023-05-04T13:41:46.085Z,30.49
2023-05-04T13:43:49.534Z,29.94
2023-05-04T13:45:52.381Z,28.24
2023-05-04T13:47:55.172Z,27.43
2023-05-04T13:49:57.975Z,26.68
2023-05-04T13:52:00.746Z,26.30
2023-05-04T13:54:03.642Z,26.43
2023-05-04T13:56:06.693Z,27.11
2023-05-04T13:58:10.620Z,26.13
2023-05-04T14:00:15.971Z,26.06
2023-05-04T14:02:20.181Z,26.46
2023-05-04T14:04:23.460Z,26.86
2023-05-04T14:06:29.502Z,26.65
2023-05-04T14:08:32.142Z,26.80
2023-05-04T14:10:36.648Z,26.27
2023-05-04T14:12:40.129Z,25.99
2023-05-04T14:14:44.058Z,25.08
2023-05-04T14:16:46.856Z,24.32
2023-05-04T14:18:50.112Z,24.38
2023-05-04T14:20:52.651Z,23.87
2023-05-04T14:22:55.212Z,23.65
2023-05-04T14:24:57.912Z,24.69
2023-05-04T14:27:02.548Z,24.64
2023-05-04T14:29:05.176Z,25.22
2023-05-04T14:31:09.488Z,24.94
2023-05-04T14:33:12.229Z,25.44
2023-05-04T14:35:16.294Z,25.84
2023-05-04T14:37:18.850Z,26.26
2023-05-04T14:39:21.435Z,26.20
2023-05-04T14:41:23.992Z,26.47
2023-05-04T14:43:26.615Z,26.34
2023-05-04T14:45:29.380Z,24.79
2023-05-04T14:47:33.686Z,24.63
2023-05-04T14:49:42.300Z,25.31
2023-05-04T14:51:44.899Z,26.17
2023-05-04T14:53:50.428Z,26.44
2023-05-04T14:55:53.084Z,26.05
2023-05-04T14:57:55.651Z,26.43
2023-05-04T14:59:58.323Z,25.44
2023-05-04T15:02:01.019Z,26.25
2023-05-04T15:04:05.105Z,26.55
2023-05-04T15:06:08.722Z,26.64
2023-05-04T15:08:11.294Z,26.53
2023-05-04T15:10:14.846Z,27.19
2023-05-04T15:12:17.601Z,27.13
2023-05-04T15:14:20.284Z,26.37
2023-05-04T15:16:22.956Z,26.73
2023-05-04T15:18:26.408Z,27.09
2023-05-04T15:20:30.422Z,26.74
2023-05-04T15:22:33.390Z,27.20
2023-05-04T15:24:36.019Z,27.04
2023-05-04T15:26:38.830Z,27.62
2023-05-04T15:28:41.443Z,28.12
2023-05-04T15:30:43.980Z,28.59
2023-05-04T15:32:46.555Z,28.74
2023-05-04T15:35:01.117Z,28.46
2023-05-04T15:37:08.903Z,29.21
2023-05-04T15:39:11.521Z,29.00
2023-05-04T15:41:14.257Z,29.27
2023-05-04T15:43:16.909Z,29.40
2023-05-04T15:45:19.545Z,28.94
2023-05-04T15:47:22.347Z,28.03
2023-05-04T15:49:27.188Z,28.46
2023-05-04T15:51:31.857Z,29.23
2023-05-04T15:53:35.877Z,29.07
2023-05-04T15:55:38.477Z,28.77
2023-05-04T15:57:41.041Z,28.94
2023-05-04T15:59:43.616Z,28.78
2023-05-04T16:01:46.304Z,27.25
2023-05-04T16:03:49.069Z,27.89
2023-05-04T16:05:51.708Z,28.07
2023-05-04T16:07:54.409Z,28.82
2023-05-04T16:09:59.259Z,28.18
2023-05-04T16:12:02.291Z,28.54
2023-05-04T16:14:05.043Z,29.61
2023-05-04T16:16:08.825Z,29.13
2023-05-04T16:18:11.478Z,29.99
2023-05-04T16:20:14.120Z,31.24
2023-05-04T16:22:16.674Z,30.60
2023-05-04T16:24:19.324Z,30.85
2023-05-04T16:26:23.219Z,30.91
2023-05-04T16:28:25.782Z,31.39
2023-05-04T16:30:32.625Z,32.01
2023-05-04T16:32:35.197Z,32.67
2023-05-04T16:34:37.795Z,30.54
2023-05-04T16:36:40.358Z,31.11
2023-05-04T16:38:43.064Z,32.30
2023-05-04T16:40:46.088Z,33.10
2023-05-04T16:42:49.990Z,33.13
2023-05-04T16:44:54.962Z,33.04
2023-05-04T16:46:57.698Z,32.71
2023-05-04T16:49:00.306Z,32.16
2023-05-04T16:51:02.834Z,32.93
2023-05-04T16:53:05.406Z,33.39
2023-05-04T16:55:11.813Z,33.55
2023-05-04T16:57:15.286Z,32.94
2023-05-04T16:59:19.185Z,33.28
2023-05-04T17:01:21.808Z,33.39
2023-05-04T17:03:24.467Z,33.49
2023-05-04T17:05:27.073Z,32.45
2023-05-04T17:07:29.665Z,32.21
2023-05-04T17:09:32.252Z,32.77
2023-05-04T17:11:34.951Z,33.41
2023-05-04T17:13:37.764Z,33.88
2023-05-04T17:15:41.720Z,32.85
2023-05-04T17:17:44.321Z,33.53
2023-05-04T17:19:46.924Z,34.04
2023-05-04T17:21:49.511Z,34.41
2023-05-04T17:23:52.046Z,34.87
2023-05-04T17:25:56.388Z,34.95
2023-05-04T17:27:59.015Z,34.55
2023-05-04T17:30:01.586Z,34.62
2023-05-04T17:32:06.011Z,34.78
2023-05-04T17:34:08.633Z,35.20
2023-05-04T17:36:12.116Z,35.57
2023-05-04T17:38:14.904Z,35.60
2023-05-04T17:40:17.521Z,35.90
2023-05-04T17:42:20.086Z,36.27
2023-05-04T17:44:24.714Z,35.48
2023-05-04T17:46:27.420Z,36.41
2023-05-04T17:48:32.026Z,36.45
2023-05-04T17:50:34.638Z,36.16
2023-05-04T17:52:37.573Z,36.80
2023-05-04T17:54:40.299Z,37.09
2023-05-04T17:56:42.946Z,37.26
2023-05-04T17:58:45.542Z,36.90
2023-05-04T18:00:49.549Z,37.53
2023-05-04T18:02:53.960Z,37.73
2023-05-04T18:04:57.870Z,37.85
2023-05-04T18:07:00.463Z,38.00
2023-05-04T18:09:03.624Z,38.38
2023-05-04T18:11:06.307Z,38.86
2023-05-04T18:13:08.939Z,38.80
2023-05-04T18:15:11.914Z,38.85
2023-05-04T18:17:14.600Z,39.39
2023-05-04T18:19:23.696Z,39.80
2023-05-04T18:21:27.680Z,39.89
2023-05-04T18:23:30.271Z,39.72
2023-05-04T18:25:33.390Z,40.07
2023-05-04T18:27:36.333Z,40.56
2023-05-04T18:29:39.017Z,40.92
2023-05-04T18:31:41.616Z,40.79
2023-05-04T18:33:44.209Z,41.09
2023-05-04T18:35:46.764Z,41.14
2023-05-04T18:37:50.872Z,41.75
2023-05-04T18:41:58.319Z,41.90
2023-05-04T18:44:01.223Z,42.27
2023-05-04T18:46:08.208Z,42.41
2023-05-04T18:48:10.962Z,42.79
2023-05-04T18:50:13.798Z,42.80
2023-05-04T18:52:16.346Z,43.00
2023-05-04T18:54:20.241Z,43.40
2023-05-04T18:56:22.809Z,43.71
2023-05-04T18:58:25.622Z,43.89
2023-05-04T19:00:28.691Z,43.34
2023-05-04T19:02:31.549Z,42.30
2023-05-04T19:04:34.333Z,42.35
2023-05-04T19:06:40.234Z,42.58
2023-05-04T19:08:42.836Z,42.72
2023-05-04T19:10:46.916Z,42.64
2023-05-04T19:12:51.720Z,42.41
2023-05-04T19:14:55.190Z,41.94
2023-05-04T19:16:57.948Z,42.34
2023-05-04T19:19:00.584Z,42.65
2023-05-04T19:21:05.358Z,42.30
2023-05-04T19:23:10.042Z,41.79
2023-05-04T19:25:20.325Z,42.23
2023-05-04T19:27:31.196Z,41.96
2023-05-04T19:29:33.792Z,42.24
2023-05-04T19:31:36.545Z,42.31
2023-05-04T19:33:47.944Z,42.54
2023-05-04T19:35:51.675Z,42.50
2023-05-04T19:37:54.322Z,42.35
2023-05-04T19:39:57.776Z,42.64
2023-05-04T19:42:00.922Z,42.58
2023-05-04T19:44:07.867Z,42.70
2023-05-04T19:46:10.493Z,42.70
2023-05-04T19:48:16.277Z,42.13
2023-05-04T19:50:19.218Z,42.50
2023-05-04T19:52:21.830Z,42.71
2023-05-04T19:54:24.478Z,42.79
2023-05-04T19:56:27.016Z,42.90
2023-05-04T19:58:30.863Z,42.26
2023-05-04T20:00:34.896Z,42.36
2023-05-04T20:02:38.072Z,42.25
2023-05-04T20:04:40.832Z,42.58
2023-05-04T20:06:43.372Z,42.79
2023-05-04T20:08:46.153Z,42.80
2023-05-04T20:10:48.760Z,43.20
2023-05-04T20:12:51.318Z,43.47
2023-05-04T20:14:53.890Z,43.71
2023-05-04T20:16:57.925Z,43.91
2023-05-04T20:19:03.426Z,44.34
2023-05-04T20:21:06.402Z,44.15
2023-05-04T20:23:09.253Z,44.59
2023-05-04T20:25:11.915Z,45.25
2023-05-04T20:27:14.471Z,45.11
2023-05-04T20:29:17.044Z,45.34
2023-05-04T20:31:19.622Z,45.84
2023-05-04T20:33:23.558Z,45.79
2023-05-04T20:35:26.223Z,46.49
2023-05-04T20:37:28.790Z,46.22
2023-05-04T20:39:31.473Z,44.59
2023-05-04T20:41:34.085Z,44.86
2023-05-04T20:43:36.701Z,45.18
2023-05-04T20:45:39.271Z,45.30
2023-05-04T20:47:41.841Z,45.70
2023-05-04T20:49:45.820Z,45.55
2023-05-04T20:51:48.379Z,45.26
2023-05-04T20:53:50.990Z,45.26
2023-05-04T20:55:53.563Z,45.25
2023-05-04T20:57:56.189Z,45.36
2023-05-04T20:59:58.945Z,44.88
2023-05-04T21:02:01.498Z,45.15
2023-05-04T21:04:04.167Z,45.35
2023-05-04T21:06:08.239Z,45.04
2023-05-04T21:08:10.800Z,45.22
2023-05-04T21:10:13.375Z,45.09
2023-05-04T21:12:16.327Z,45.52
2023-05-04T21:14:18.893Z,45.73
2023-05-04T21:16:21.606Z,46.34
2023-05-04T21:18:24.169Z,46.12
2023-05-04T21:20:26.889Z,45.93
2023-05-04T21:22:30.892Z,45.99
2023-05-04T21:24:33.464Z,46.16
2023-05-04T21:26:36.146Z,46.01
2023-05-04T21:28:38.797Z,46.19
2023-05-04T21:30:42.301Z,46.25
2023-05-04T21:32:44.915Z,46.92
2023-05-04T21:34:52.404Z,47.58
2023-05-04T21:36:54.931Z,47.75
2023-05-04T21:38:59.098Z,46.66
2023-05-04T21:41:10.939Z,47.10
2023-05-04T21:43:13.372Z,47.54
2023-05-04T21:45:15.935Z,47.52
2023-05-04T21:47:18.495Z,47.40
2023-05-04T21:49:21.067Z,47.83
2023-05-04T21:51:23.611Z,48.39
2023-05-04T21:53:26.215Z,48.24
2023-05-04T21:55:31.277Z,48.55
2023-05-04T21:57:33.885Z,48.58
2023-05-04T21:59:36.464Z,48.75
2023-05-04T22:01:39.022Z,49.17
2023-05-04T22:03:41.695Z,49.10
2023-05-04T22:05:52.687Z,49.19
2023-05-04T22:07:55.252Z,49.21
2023-05-04T22:09:57.824Z,49.22
2023-05-04T22:12:02.192Z,48.95
2023-05-04T22:14:04.739Z,49.25
2023-05-04T22:16:09.423Z,48.86
2023-05-04T22:18:12.249Z,48.99
2023-05-04T22:20:15.076Z,49.08
2023-05-04T22:22:17.686Z,48.85
2023-05-04T22:24:20.725Z,49.31
2023-05-04T22:26:23.275Z,49.04
2023-05-04T22:28:27.311Z,49.09
2023-05-04T22:30:30.183Z,49.51
2023-05-04T22:32:32.800Z,49.67
2023-05-04T22:34:35.544Z,49.81
2023-05-04T22:36:38.095Z,49.97
2023-05-04T22:38:40.687Z,50.21
2023-05-04T22:40:43.793Z,50.08
2023-05-04T22:42:46.429Z,49.84
2023-05-04T22:44:50.345Z,50.12
2023-05-04T22:46:52.918Z,50.11
2023-05-04T22:48:55.493Z,49.94
2023-05-04T22:50:58.066Z,50.00
2023-05-04T22:53:00.748Z,50.18
2023-05-04T22:55:03.747Z,50.09
2023-05-04T22:57:06.678Z,50.04
2023-05-04T22:59:09.236Z,49.85
2023-05-04T23:01:13.171Z,49.82
2023-05-04T23:03:15.882Z,49.79
2023-05-04T23:05:18.795Z,49.99
2023-05-04T23:07:21.370Z,50.13
2023-05-04T23:09:23.985Z,50.09
2023-05-04T23:11:26.529Z,50.35
2023-05-04T23:13:29.087Z,50.58
2023-05-04T23:15:32.681Z,50.52
2023-05-04T23:17:38.470Z,50.77
2023-05-04T23:19:41.134Z,50.55
2023-05-04T23:21:43.682Z,51.00
2023-05-04T23:23:46.245Z,51.31
2023-05-04T23:25:48.831Z,51.26
2023-05-04T23:27:51.418Z,51.12
2023-05-04T23:29:54.283Z,51.45
2023-05-04T23:31:56.944Z,51.55
2023-05-04T23:34:01.009Z,51.70
2023-05-04T23:36:03.644Z,51.79
2023-05-04T23:38:06.246Z,51.64
2023-05-04T23:40:10.338Z,51.82
2023-05-04T23:42:13.063Z,51.82
2023-05-04T23:44:16.429Z,51.90
2023-05-04T23:46:19.054Z,51.97
2023-05-04T23:48:21.609Z,52.25
2023-05-04T23:50:25.619Z,51.90
2023-05-04T23:52:28.181Z,51.92
2023-05-04T23:54:31.046Z,52.25
2023-05-04T23:56:33.608Z,52.38
2023-05-04T23:58:37.147Z,52.55
